createdAt,value
2022-10-05T00:00:16.802Z,5.82
2022-10-05T00:01:17.324Z,5.81
2022-10-05T00:02:16.787Z,5.81
2022-10-05T00:03:17.267Z,5.75
2022-10-05T00:04:16.769Z,5.72
2022-10-05T00:05:16.435Z,5.75
2022-10-05T00:06:17.006Z,5.75
2022-10-05T00:07:16.453Z,5.75
2022-10-05T00:08:16.885Z,5.74
2022-10-05T00:09:16.334Z,5.74
2022-10-05T00:10:16.797Z,5.77
2022-10-05T00:11:17.221Z,5.78
2022-10-05T00:12:16.682Z,5.82
2022-10-05T00:13:17.140Z,5.86
2022-10-05T00:14:16.596Z,5.88
2022-10-05T00:15:17.063Z,5.85
2022-10-05T00:16:16.617Z,5.85
2022-10-05T00:17:17.214Z,5.84
2022-10-05T00:18:16.716Z,5.86
2022-10-05T00:19:17.214Z,5.88
2022-10-05T00:20:16.712Z,5.85
2022-10-05T00:21:17.172Z,5.82
2022-10-05T00:22:16.526Z,5.84
2022-10-05T00:23:16.958Z,5.78
2022-10-05T00:24:16.402Z,5.72
2022-10-05T00:25:16.856Z,5.72
2022-10-05T00:26:16.296Z,5.70
2022-10-05T00:27:16.735Z,5.72
2022-10-05T00:28:17.229Z,5.75
2022-10-05T00:29:16.752Z,5.78
2022-10-05T00:30:17.214Z,5.75
2022-10-05T00:31:16.711Z,5.75
2022-10-05T00:32:16.465Z,5.81
2022-10-05T00:33:16.971Z,5.84
2022-10-05T00:34:16.448Z,5.86
2022-10-05T00:35:16.930Z,5.84
2022-10-05T00:36:16.400Z,5.82
2022-10-05T00:37:16.862Z,5.82
2022-10-05T00:38:16.301Z,5.82
2022-10-05T00:39:16.741Z,5.85
2022-10-05T00:40:17.200Z,5.81
2022-10-05T00:41:16.648Z,5.77
2022-10-05T00:42:17.291Z,5.72
2022-10-05T00:43:16.754Z,5.67
2022-10-05T00:44:17.211Z,5.68
2022-10-05T00:45:16.676Z,5.67
2022-10-05T00:46:17.262Z,5.65
2022-10-05T00:47:16.863Z,5.64
2022-10-05T00:48:16.337Z,5.64
2022-10-05T00:49:16.810Z,5.61
2022-10-05T00:50:17.268Z,5.64
2022-10-05T00:51:16.735Z,5.68
2022-10-05T00:52:17.013Z,5.72
2022-10-05T00:53:16.449Z,5.77
2022-10-05T00:54:18.440Z,5.75
2022-10-05T00:55:17.130Z,5.78
2022-10-05T00:56:16.556Z,5.85
2022-10-05T00:57:16.993Z,5.82
2022-10-05T00:58:16.444Z,5.74
2022-10-05T00:59:16.920Z,5.82
2022-10-05T01:00:16.374Z,5.82
2022-10-05T01:01:16.971Z,5.85
2022-10-05T01:02:17.271Z,5.85
2022-10-05T01:03:16.863Z,5.86
2022-10-05T01:04:16.325Z,5.85
2022-10-05T01:05:16.809Z,5.79
2022-10-05T01:06:17.235Z,5.79
2022-10-05T01:07:16.649Z,5.79
2022-10-05T01:08:17.093Z,5.77
2022-10-05T01:09:16.535Z,5.79
2022-10-05T01:10:16.968Z,5.74
2022-10-05T01:11:16.468Z,5.77
2022-10-05T01:12:17.268Z,5.75
2022-10-05T01:13:16.752Z,5.75
2022-10-05T01:14:17.248Z,5.77
2022-10-05T01:15:16.743Z,5.74
2022-10-05T01:16:17.262Z,5.71
2022-10-05T01:17:16.801Z,5.65
2022-10-05T01:18:17.256Z,5.64
2022-10-05T01:19:16.717Z,5.61
2022-10-05T01:20:17.191Z,5.60
2022-10-05T01:21:16.621Z,5.60
2022-10-05T01:22:17.191Z,5.57
2022-10-05T01:23:16.618Z,5.48
2022-10-05T01:24:17.054Z,5.41
2022-10-05T01:25:16.544Z,5.40
2022-10-05T01:26:17.018Z,5.40
2022-10-05T01:27:16.465Z,5.38
2022-10-05T01:28:16.966Z,5.38
2022-10-05T01:29:16.537Z,5.37
2022-10-05T01:30:17.022Z,5.35
2022-10-05T01:31:16.563Z,5.37
2022-10-05T01:32:16.515Z,5.28
2022-10-05T01:33:16.996Z,5.33
2022-10-05T01:34:16.427Z,5.33
2022-10-05T01:35:16.879Z,5.34
2022-10-05T01:36:16.305Z,5.40
2022-10-05T01:37:16.748Z,5.43
2022-10-05T01:38:17.191Z,5.44
2022-10-05T01:39:16.632Z,5.45
2022-10-05T01:40:17.098Z,5.50
2022-10-05T01:41:16.556Z,5.47
2022-10-05T01:42:16.339Z,5.45
2022-10-05T01:43:16.880Z,5.41
2022-10-05T01:44:16.361Z,5.27
2022-10-05T01:45:16.822Z,5.26
2022-10-05T01:46:17.339Z,5.22
2022-10-05T01:47:16.907Z,5.17
2022-10-05T01:48:16.383Z,5.19
2022-10-05T01:49:16.844Z,5.20
2022-10-05T01:50:17.273Z,5.22
2022-10-05T01:51:16.700Z,5.23
2022-10-05T01:52:16.362Z,5.23
2022-10-05T01:53:16.829Z,5.24
2022-10-05T01:54:17.275Z,5.23
2022-10-05T01:55:16.695Z,5.24
2022-10-05T01:56:17.141Z,5.27
2022-10-05T01:57:16.592Z,5.28
2022-10-05T01:58:17.062Z,5.26
2022-10-05T01:59:16.549Z,5.26
2022-10-05T02:00:17.115Z,5.22
2022-10-05T02:01:16.630Z,5.22
2022-10-05T02:02:17.246Z,5.16
2022-10-05T02:03:16.848Z,5.13
2022-10-05T02:04:30.970Z,5.13
2022-10-05T02:05:16.803Z,5.06
2022-10-05T02:06:17.234Z,5.02
2022-10-05T02:07:16.662Z,4.98
2022-10-05T02:08:17.113Z,4.98
2022-10-05T02:09:16.534Z,4.99
2022-10-05T02:10:17.006Z,5.02
2022-10-05T02:11:16.440Z,5.05
2022-10-05T02:12:16.972Z,5.07
2022-10-05T02:13:16.483Z,5.05
2022-10-05T02:14:16.941Z,5.03
2022-10-05T02:15:16.448Z,5.07
2022-10-05T02:16:17.021Z,5.06
2022-10-05T02:17:16.647Z,5.09
2022-10-05T02:18:17.160Z,5.07
2022-10-05T02:19:16.613Z,5.12
2022-10-05T02:20:17.069Z,5.07
2022-10-05T02:21:16.507Z,5.10
2022-10-05T02:22:17.022Z,5.09
2022-10-05T02:23:16.464Z,5.10
2022-10-05T02:24:16.896Z,5.13
2022-10-05T02:25:16.318Z,5.13
2022-10-05T02:26:16.762Z,5.09
2022-10-05T02:27:17.272Z,5.12
2022-10-05T02:28:16.744Z,5.13
2022-10-05T02:29:16.292Z,5.09
2022-10-05T02:30:16.931Z,5.06
2022-10-05T02:31:16.504Z,5.03
2022-10-05T02:32:16.611Z,5.00
2022-10-05T02:33:17.056Z,4.96
2022-10-05T02:34:16.492Z,4.93
2022-10-05T02:35:16.932Z,4.92
2022-10-05T02:36:16.382Z,4.95
2022-10-05T02:37:16.848Z,4.86
2022-10-05T02:38:16.285Z,4.84
2022-10-05T02:39:16.711Z,4.84
2022-10-05T02:40:17.160Z,4.86
2022-10-05T02:41:16.636Z,4.86
2022-10-05T02:42:16.456Z,4.79
2022-10-05T02:43:16.929Z,4.84
2022-10-05T02:44:16.406Z,4.84
2022-10-05T02:45:16.885Z,4.89
2022-10-05T02:46:16.372Z,4.86
2022-10-05T02:47:16.994Z,4.88
2022-10-05T02:48:16.499Z,4.84
2022-10-05T02:49:16.928Z,4.84
2022-10-05T02:50:16.378Z,4.84
2022-10-05T02:51:16.817Z,4.64
2022-10-05T02:52:17.104Z,4.57
2022-10-05T02:53:16.552Z,4.60
2022-10-05T02:54:16.973Z,4.55
2022-10-05T02:55:16.420Z,4.54
2022-10-05T02:56:16.889Z,4.53
2022-10-05T02:57:16.342Z,4.54
2022-10-05T02:58:16.806Z,4.54
2022-10-05T02:59:17.269Z,4.54
2022-10-05T03:00:16.727Z,4.57
2022-10-05T03:01:17.232Z,4.58
2022-10-05T03:02:17.032Z,4.60
2022-10-05T03:03:16.597Z,4.58
2022-10-05T03:04:17.026Z,4.55
2022-10-05T03:05:16.518Z,4.58
2022-10-05T03:06:16.971Z,4.61
2022-10-05T03:07:16.495Z,4.60
2022-10-05T03:08:16.920Z,4.60
2022-10-05T03:09:16.355Z,4.58
2022-10-05T03:10:16.796Z,4.54
2022-10-05T03:11:17.241Z,4.57
2022-10-05T03:12:16.897Z,4.58
2022-10-05T03:13:16.380Z,4.55
2022-10-05T03:14:16.868Z,4.55
2022-10-05T03:15:16.331Z,4.51
2022-10-05T03:16:16.827Z,4.48
2022-10-05T03:17:16.488Z,4.53
2022-10-05T03:18:16.952Z,4.57
2022-10-05T03:19:16.370Z,4.57
2022-10-05T03:20:16.794Z,4.60
2022-10-05T03:21:17.258Z,4.61
2022-10-05T03:22:17.112Z,4.55
2022-10-05T03:23:16.612Z,4.54
2022-10-05T03:24:17.053Z,4.51
2022-10-05T03:25:16.512Z,4.48
2022-10-05T03:26:16.963Z,4.41
2022-10-05T03:27:16.437Z,4.36
2022-10-05T03:28:16.962Z,4.34
2022-10-05T03:29:16.573Z,4.33
2022-10-05T03:30:17.051Z,4.28
2022-10-05T03:31:16.567Z,4.28
2022-10-05T03:32:17.186Z,4.31
2022-10-05T03:33:16.633Z,4.33
2022-10-05T03:34:17.088Z,4.33
2022-10-05T03:35:16.519Z,4.34
2022-10-05T03:36:16.945Z,4.36
2022-10-05T03:37:16.400Z,4.38
2022-10-05T03:38:17.229Z,4.43
2022-10-05T03:39:16.679Z,4.43
2022-10-05T03:40:17.164Z,4.47
2022-10-05T03:41:16.629Z,4.53
2022-10-05T03:42:16.412Z,4.50
2022-10-05T03:43:16.868Z,4.48
2022-10-05T03:44:16.324Z,4.43
2022-10-05T03:45:16.779Z,4.41
2022-10-05T03:46:17.286Z,4.36
2022-10-05T03:47:16.832Z,4.30
2022-10-05T03:48:17.285Z,4.27
2022-10-05T03:49:16.712Z,4.28
2022-10-05T03:50:17.142Z,4.27
2022-10-05T03:51:16.593Z,4.26
2022-10-05T03:52:17.232Z,4.24
2022-10-05T03:53:16.653Z,4.24
2022-10-05T03:54:17.092Z,4.23
2022-10-05T03:55:16.550Z,4.23
2022-10-05T03:56:17.040Z,4.23
2022-10-05T03:57:16.525Z,4.24
2022-10-05T03:58:16.981Z,4.24
2022-10-05T03:59:16.447Z,4.27
2022-10-05T04:00:16.951Z,4.21
2022-10-05T04:01:16.493Z,4.24
2022-10-05T04:02:16.931Z,4.23
2022-10-05T04:03:16.506Z,4.23
2022-10-05T04:04:16.930Z,4.23
2022-10-05T04:05:16.350Z,4.24
2022-10-05T04:06:16.804Z,4.20
2022-10-05T04:07:17.271Z,4.21
2022-10-05T04:08:16.727Z,4.19
2022-10-05T04:09:17.197Z,4.13
2022-10-05T04:10:16.672Z,4.10
2022-10-05T04:11:17.144Z,4.10
2022-10-05T04:12:16.838Z,4.09
2022-10-05T04:13:16.303Z,4.13
2022-10-05T04:14:16.757Z,4.12
2022-10-05T04:15:18.943Z,4.14
2022-10-05T04:16:16.642Z,4.16
2022-10-05T04:17:17.451Z,4.16
2022-10-05T04:18:16.872Z,4.17
2022-10-05T04:19:16.348Z,4.14
2022-10-05T04:20:16.810Z,4.16
2022-10-05T04:21:21.376Z,4.14
2022-10-05T04:22:16.685Z,4.16
2022-10-05T04:23:17.187Z,4.13
2022-10-05T04:24:16.641Z,4.14
2022-10-05T04:25:17.113Z,4.17
2022-10-05T04:26:16.590Z,4.19
2022-10-05T04:27:17.064Z,4.20
2022-10-05T04:28:16.628Z,4.17
2022-10-05T04:29:17.205Z,4.20
2022-10-05T04:30:16.668Z,4.19
2022-10-05T04:31:17.140Z,4.20
2022-10-05T04:32:16.613Z,4.17
2022-10-05T04:33:17.087Z,4.17
2022-10-05T04:34:16.502Z,4.17
2022-10-05T04:35:16.954Z,4.17
2022-10-05T04:36:16.373Z,4.17
2022-10-05T04:37:16.835Z,4.17
2022-10-05T04:38:17.286Z,4.20
2022-10-05T04:39:16.741Z,4.23
2022-10-05T04:40:17.208Z,4.23
2022-10-05T04:41:16.680Z,4.28
2022-10-05T04:42:16.952Z,4.31
2022-10-05T04:43:16.417Z,4.33
2022-10-05T04:44:16.900Z,4.33
2022-10-05T04:45:16.397Z,4.33
2022-10-05T04:46:16.896Z,4.31
2022-10-05T04:47:16.550Z,4.27
2022-10-05T04:48:16.982Z,4.28
2022-10-05T04:49:16.420Z,4.26
2022-10-05T04:50:16.843Z,4.19
2022-10-05T04:51:17.274Z,4.10
2022-10-05T04:52:17.132Z,4.09
2022-10-05T04:53:16.612Z,4.10
2022-10-05T04:54:17.104Z,4.09
2022-10-05T04:55:16.589Z,4.10
2022-10-05T04:56:17.068Z,4.10
2022-10-05T04:57:16.564Z,4.16
2022-10-05T04:58:17.055Z,4.19
2022-10-05T04:59:16.560Z,4.23
2022-10-05T05:00:16.990Z,4.24
2022-10-05T05:01:16.421Z,4.23
2022-10-05T05:02:17.193Z,4.24
2022-10-05T05:03:16.614Z,4.26
2022-10-05T05:04:17.031Z,4.27
2022-10-05T05:05:16.490Z,4.30
2022-10-05T05:06:17.899Z,4.31
2022-10-05T05:07:17.005Z,4.31
2022-10-05T05:08:16.478Z,4.33
2022-10-05T05:09:16.947Z,4.30
2022-10-05T05:10:16.413Z,4.30
2022-10-05T05:11:20.024Z,4.31
2022-10-05T05:12:17.308Z,4.31
2022-10-05T05:13:16.771Z,4.31
2022-10-05T05:14:17.268Z,4.33
2022-10-05T05:15:16.710Z,4.31
2022-10-05T05:16:17.253Z,4.31
2022-10-05T05:17:16.755Z,4.31
2022-10-05T05:18:17.182Z,4.26
2022-10-05T05:19:16.649Z,4.30
2022-10-05T05:20:17.087Z,4.28
2022-10-05T05:21:16.523Z,4.24
2022-10-05T05:22:16.883Z,4.26
2022-10-05T05:23:16.379Z,4.24
2022-10-05T05:24:16.856Z,4.21
2022-10-05T05:25:16.336Z,4.24
2022-10-05T05:26:16.819Z,4.30
2022-10-05T05:27:16.300Z,4.30
2022-10-05T05:28:16.885Z,4.24
2022-10-05T05:29:16.670Z,4.26
2022-10-05T05:30:17.122Z,4.24
2022-10-05T05:31:16.584Z,4.24
2022-10-05T05:32:16.410Z,4.24
2022-10-05T05:33:16.864Z,4.21
2022-10-05T05:34:16.305Z,4.23
2022-10-05T05:35:16.755Z,4.23
2022-10-05T05:36:20.823Z,4.23
2022-10-05T05:37:16.976Z,4.17
2022-10-05T05:38:16.478Z,4.17
2022-10-05T05:39:16.973Z,4.14
2022-10-05T05:40:16.449Z,4.09
2022-10-05T05:41:16.911Z,4.03
2022-10-05T05:42:16.623Z,4.00
2022-10-05T05:43:17.117Z,4.00
2022-10-05T05:44:16.574Z,4.06
2022-10-05T05:45:17.059Z,4.05
2022-10-05T05:46:16.554Z,4.03
2022-10-05T05:47:17.125Z,4.09
2022-10-05T05:48:16.709Z,4.08
2022-10-05T05:49:17.168Z,4.10
2022-10-05T05:50:16.598Z,4.10
2022-10-05T05:51:17.209Z,4.12
2022-10-05T05:52:16.433Z,4.12
2022-10-05T05:53:16.904Z,4.12
2022-10-05T05:54:16.378Z,4.14
2022-10-05T05:55:16.857Z,4.13
2022-10-05T05:56:16.332Z,4.10
2022-10-05T05:57:16.827Z,4.14
2022-10-05T05:58:17.310Z,4.14
2022-10-05T05:59:16.731Z,4.19
2022-10-05T06:00:17.194Z,4.19
2022-10-05T06:01:32.041Z,4.20
2022-10-05T06:02:17.318Z,4.21
2022-10-05T06:03:16.964Z,4.21
2022-10-05T06:04:16.721Z,4.21
2022-10-05T06:05:17.178Z,4.31
2022-10-05T06:06:16.658Z,4.33
2022-10-05T06:07:17.104Z,4.33
2022-10-05T06:08:16.555Z,4.34
2022-10-05T06:09:17.019Z,4.36
2022-10-05T06:10:16.481Z,4.36
2022-10-05T06:11:16.925Z,4.40
2022-10-05T06:12:16.492Z,4.43
2022-10-05T06:13:16.968Z,4.43
2022-10-05T06:14:16.400Z,4.43
2022-10-05T06:15:16.839Z,4.48
2022-10-05T06:16:17.316Z,4.46
2022-10-05T06:17:16.902Z,4.51
2022-10-05T06:18:16.369Z,4.53
2022-10-05T06:19:16.836Z,4.53
2022-10-05T06:20:16.342Z,4.53
2022-10-05T06:21:16.860Z,4.54
2022-10-05T06:22:17.421Z,4.54
2022-10-05T06:23:16.876Z,4.43
2022-10-05T06:24:16.377Z,4.41
2022-10-05T06:25:16.855Z,4.43
2022-10-05T06:26:16.285Z,4.41
2022-10-05T06:27:16.706Z,4.48
2022-10-05T06:28:17.166Z,4.47
2022-10-05T06:29:16.724Z,4.53
2022-10-05T06:30:17.159Z,4.51
2022-10-05T06:31:16.644Z,4.54
2022-10-05T06:32:16.377Z,4.51
2022-10-05T06:33:16.834Z,4.50
2022-10-05T06:34:16.305Z,4.57
2022-10-05T06:35:16.792Z,4.58
2022-10-05T06:36:17.282Z,4.64
2022-10-05T06:37:16.723Z,4.69
2022-10-05T06:38:17.169Z,4.74
2022-10-05T06:39:16.655Z,4.74
2022-10-05T06:40:17.088Z,4.79
2022-10-05T06:41:16.515Z,4.89
2022-10-05T06:42:16.834Z,4.92
2022-10-05T06:43:17.309Z,5.00
2022-10-05T06:44:16.732Z,5.07
2022-10-05T06:45:17.155Z,5.14
2022-10-05T06:46:16.654Z,5.24
2022-10-05T06:47:17.333Z,5.30
2022-10-05T06:48:16.796Z,5.37
2022-10-05T06:49:17.264Z,5.43
2022-10-05T06:50:16.752Z,5.47
2022-10-05T06:51:17.213Z,5.65
2022-10-05T06:52:16.694Z,5.71
2022-10-05T06:53:17.165Z,5.74
2022-10-05T06:54:16.645Z,5.81
2022-10-05T06:55:17.108Z,5.85
2022-10-05T06:56:16.540Z,5.92
2022-10-05T06:57:16.978Z,5.95
2022-10-05T06:58:16.440Z,6.05
2022-10-05T06:59:16.872Z,6.05
2022-10-05T07:00:16.326Z,6.12
2022-10-05T07:01:16.894Z,6.19
2022-10-05T07:02:17.299Z,6.20
2022-10-05T07:03:16.866Z,6.27
2022-10-05T07:04:16.335Z,6.30
2022-10-05T07:05:16.805Z,6.40
2022-10-05T07:06:17.248Z,6.47
2022-10-05T07:07:16.707Z,6.54
2022-10-05T07:08:17.176Z,6.57
2022-10-05T07:09:16.616Z,6.57
2022-10-05T07:10:17.057Z,6.68
2022-10-05T07:11:16.483Z,6.74
2022-10-05T07:12:17.114Z,6.81
2022-10-05T07:13:16.582Z,6.89
2022-10-05T07:14:17.049Z,6.96
2022-10-05T07:15:16.527Z,7.00
2022-10-05T07:16:16.989Z,7.09
2022-10-05T07:17:16.563Z,7.10
2022-10-05T07:18:17.060Z,7.15
2022-10-05T07:19:16.537Z,7.22
2022-10-05T07:20:17.015Z,7.26
2022-10-05T07:21:16.477Z,7.35
2022-10-05T07:22:16.819Z,7.37
2022-10-05T07:23:17.329Z,7.43
2022-10-05T07:24:16.759Z,7.53
2022-10-05T07:25:17.192Z,7.65
2022-10-05T07:26:16.644Z,7.68
2022-10-05T07:27:17.081Z,7.78
2022-10-05T07:28:16.613Z,7.80
2022-10-05T07:29:17.139Z,7.86
2022-10-05T07:30:16.630Z,8.21
2022-10-05T07:31:17.240Z,8.21
2022-10-05T07:32:16.893Z,8.21
2022-10-05T07:33:16.376Z,8.40
2022-10-05T07:34:16.859Z,8.39
2022-10-05T07:35:16.336Z,8.48
2022-10-05T07:36:16.804Z,8.65
2022-10-05T07:37:17.291Z,8.75
2022-10-05T07:38:16.722Z,8.89
2022-10-05T07:39:17.148Z,8.99
2022-10-05T07:40:16.572Z,9.19
2022-10-05T07:41:17.022Z,9.26
2022-10-05T07:42:16.463Z,9.27
2022-10-05T07:43:16.952Z,9.27
2022-10-05T07:44:16.396Z,9.47
2022-10-05T07:45:16.893Z,9.45
2022-10-05T07:46:16.421Z,9.54
2022-10-05T07:47:17.049Z,9.50
2022-10-05T07:48:16.540Z,9.51
2022-10-05T07:49:17.005Z,9.55
2022-10-05T07:50:16.471Z,9.58
2022-10-05T07:51:17.008Z,9.74
2022-10-05T07:52:16.565Z,9.74
2022-10-05T07:53:16.997Z,9.91
2022-10-05T07:54:16.448Z,9.91
2022-10-05T07:55:16.893Z,9.84
2022-10-05T07:56:16.319Z,9.82
2022-10-05T07:57:16.743Z,9.82
2022-10-05T07:58:17.165Z,9.86
2022-10-05T07:59:16.624Z,9.88
2022-10-05T08:00:17.078Z,9.99
2022-10-05T08:01:16.543Z,10.08
2022-10-05T08:02:16.933Z,10.09
2022-10-05T08:03:16.714Z,10.06
2022-10-05T08:04:16.352Z,10.09
2022-10-05T08:05:16.807Z,10.14
2022-10-05T08:06:17.276Z,10.17
2022-10-05T08:07:16.794Z,10.20
2022-10-05T08:08:18.085Z,10.23
2022-10-05T08:09:16.931Z,10.27
2022-10-05T08:10:16.365Z,10.24
2022-10-05T08:11:16.831Z,10.30
2022-10-05T08:12:16.747Z,10.37
2022-10-05T08:13:17.174Z,10.47
2022-10-05T08:14:16.625Z,10.36
2022-10-05T08:15:17.103Z,10.40
2022-10-05T08:16:16.649Z,10.65
2022-10-05T08:17:16.340Z,10.68
2022-10-05T08:18:16.820Z,10.74
2022-10-05T08:19:17.282Z,10.74
2022-10-05T08:20:16.757Z,10.71
2022-10-05T08:21:17.210Z,10.72
2022-10-05T08:22:16.506Z,10.71
2022-10-05T08:23:16.972Z,10.67
2022-10-05T08:24:16.409Z,10.68
2022-10-05T08:25:16.848Z,10.84
2022-10-05T08:26:17.274Z,10.87
2022-10-05T08:27:16.699Z,10.96
2022-10-05T08:28:17.185Z,10.99
2022-10-05T08:29:16.735Z,11.02
2022-10-05T08:30:17.250Z,11.02
2022-10-05T08:31:16.738Z,11.03
2022-10-05T08:32:16.349Z,11.00
2022-10-05T08:33:16.804Z,11.06
2022-10-05T08:34:17.276Z,11.20
2022-10-05T08:35:16.728Z,11.17
2022-10-05T08:36:17.212Z,11.20
2022-10-05T08:37:16.640Z,11.22
2022-10-05T08:38:17.084Z,11.31
2022-10-05T08:39:16.508Z,11.34
2022-10-05T08:40:16.948Z,11.47
2022-10-05T08:41:16.382Z,11.60
2022-10-05T08:42:16.899Z,11.58
2022-10-05T08:43:16.364Z,11.67
2022-10-05T08:44:16.837Z,11.78
2022-10-05T08:45:16.307Z,11.85
2022-10-05T08:46:16.852Z,11.93
2022-10-05T08:47:16.482Z,12.09
2022-10-05T08:48:16.946Z,12.09
2022-10-05T08:49:16.420Z,12.11
2022-10-05T08:50:16.872Z,12.18
2022-10-05T08:51:16.304Z,12.23
2022-10-05T08:52:17.024Z,12.39
2022-10-05T08:53:16.455Z,12.37
2022-10-05T08:54:16.900Z,12.41
2022-10-05T08:55:16.339Z,12.46
2022-10-05T08:56:20.070Z,12.50
2022-10-05T08:57:16.652Z,12.47
2022-10-05T08:58:17.102Z,12.57
2022-10-05T08:59:16.612Z,12.64
2022-10-05T09:00:17.092Z,12.63
2022-10-05T09:01:16.608Z,12.66
2022-10-05T09:02:17.213Z,12.72
2022-10-05T09:03:16.837Z,12.79
2022-10-05T09:04:17.305Z,12.94
2022-10-05T09:05:16.749Z,12.91
2022-10-05T09:06:17.188Z,12.96
2022-10-05T09:07:16.621Z,12.99
2022-10-05T09:08:17.068Z,12.94
2022-10-05T09:09:16.499Z,12.88
2022-10-05T09:10:16.928Z,12.95
2022-10-05T09:11:16.362Z,13.01
2022-10-05T09:12:16.996Z,13.02
2022-10-05T09:13:16.491Z,12.99
2022-10-05T09:14:16.936Z,13.04
2022-10-05T09:15:25.625Z,12.91
2022-10-05T09:16:17.197Z,12.98
2022-10-05T09:17:16.853Z,12.94
2022-10-05T09:18:16.347Z,12.98
2022-10-05T09:19:16.879Z,13.01
2022-10-05T09:20:16.345Z,12.99
2022-10-05T09:21:16.767Z,12.99
2022-10-05T09:22:17.223Z,13.02
2022-10-05T09:23:16.673Z,13.08
2022-10-05T09:24:17.101Z,13.15
2022-10-05T09:25:16.524Z,13.18
2022-10-05T09:26:16.954Z,13.23
2022-10-05T09:27:16.413Z,13.25
2022-10-05T09:28:16.950Z,13.27
2022-10-05T09:29:16.528Z,13.30
2022-10-05T09:30:17.059Z,13.27
2022-10-05T09:31:16.572Z,13.30
2022-10-05T09:32:16.731Z,13.33
2022-10-05T09:33:17.249Z,13.32
2022-10-05T09:34:16.742Z,13.34
2022-10-05T09:35:17.242Z,13.40
2022-10-05T09:36:16.685Z,13.44
2022-10-05T09:37:17.151Z,13.53
2022-10-05T09:38:16.611Z,13.51
2022-10-05T09:39:17.035Z,13.57
2022-10-05T09:40:16.499Z,13.67
2022-10-05T09:41:17.115Z,13.74
2022-10-05T09:42:16.471Z,13.70
2022-10-05T09:43:16.935Z,13.76
2022-10-05T09:44:16.799Z,13.77
2022-10-05T09:45:21.113Z,13.78
2022-10-05T09:46:17.133Z,13.84
2022-10-05T09:47:16.688Z,13.90
2022-10-05T09:48:17.165Z,13.91
2022-10-05T09:49:16.636Z,13.98
2022-10-05T09:50:17.101Z,14.01
2022-10-05T09:51:16.645Z,14.04
2022-10-05T09:52:18.900Z,14.25
2022-10-05T09:53:16.645Z,14.28
2022-10-05T09:54:17.103Z,14.25
2022-10-05T09:55:16.572Z,14.47
2022-10-05T09:56:17.034Z,14.50
2022-10-05T09:57:16.614Z,14.56
2022-10-05T09:58:17.081Z,14.59
2022-10-05T09:59:16.577Z,14.62
2022-10-05T10:00:17.202Z,14.76
2022-10-05T10:01:32.425Z,14.81
2022-10-05T10:02:16.478Z,14.71
2022-10-05T10:03:16.351Z,14.67
2022-10-05T10:04:17.103Z,14.83
2022-10-05T10:05:16.543Z,14.87
2022-10-05T10:06:16.984Z,14.84
2022-10-05T10:07:16.433Z,14.94
2022-10-05T10:08:16.904Z,15.22
2022-10-05T10:09:16.348Z,15.12
2022-10-05T10:10:16.785Z,15.18
2022-10-05T10:11:16.325Z,15.18
2022-10-05T10:12:16.740Z,15.26
2022-10-05T10:13:17.189Z,15.22
2022-10-05T10:14:16.653Z,15.28
2022-10-05T10:15:17.158Z,15.28
2022-10-05T10:16:16.658Z,15.21
2022-10-05T10:17:17.228Z,15.31
2022-10-05T10:18:16.741Z,15.36
2022-10-05T10:19:17.206Z,15.43
2022-10-05T10:20:16.631Z,15.73
2022-10-05T10:21:17.162Z,15.63
2022-10-05T10:22:16.628Z,15.67
2022-10-05T10:23:17.110Z,15.73
2022-10-05T10:24:16.542Z,15.76
2022-10-05T10:25:16.971Z,15.70
2022-10-05T10:26:16.460Z,15.78
2022-10-05T10:27:16.939Z,15.80
2022-10-05T10:28:16.461Z,15.81
2022-10-05T10:29:17.116Z,15.74
2022-10-05T10:30:16.820Z,15.80
2022-10-05T10:31:16.346Z,15.94
2022-10-05T10:32:16.899Z,15.90
2022-10-05T10:33:16.329Z,15.90
2022-10-05T10:34:16.802Z,15.92
2022-10-05T10:35:17.263Z,15.88
2022-10-05T10:36:16.811Z,15.94
2022-10-05T10:37:17.258Z,15.95
2022-10-05T10:38:16.709Z,16.04
2022-10-05T10:39:17.173Z,16.25
2022-10-05T10:40:16.647Z,16.32
2022-10-05T10:41:17.102Z,16.31
2022-10-05T10:42:16.544Z,16.21
2022-10-05T10:43:17.043Z,16.24
2022-10-05T10:44:16.531Z,16.18
2022-10-05T10:45:17.062Z,16.25
2022-10-05T10:46:16.600Z,16.50
2022-10-05T10:47:17.169Z,16.50
2022-10-05T10:48:16.598Z,16.38
2022-10-05T10:49:17.096Z,16.45
2022-10-05T10:50:16.545Z,16.64
2022-10-05T10:51:16.988Z,16.68
2022-10-05T10:52:16.609Z,16.70
2022-10-05T10:53:17.042Z,16.74
2022-10-05T10:54:16.519Z,16.77
2022-10-05T10:55:17.006Z,16.86
2022-10-05T10:56:16.538Z,17.00
2022-10-05T10:57:17.097Z,16.97
2022-10-05T10:58:16.716Z,16.91
2022-10-05T10:59:16.309Z,16.90
2022-10-05T11:00:16.800Z,16.88
2022-10-05T11:01:17.318Z,16.90
2022-10-05T11:02:17.033Z,16.83
2022-10-05T11:03:16.758Z,16.87
2022-10-05T11:04:16.343Z,16.80
2022-10-05T11:05:16.794Z,16.90
2022-10-05T11:06:17.257Z,16.90
2022-10-05T11:07:16.687Z,16.95
2022-10-05T11:08:17.118Z,16.95
2022-10-05T11:09:16.605Z,16.94
2022-10-05T11:10:17.070Z,16.88
2022-10-05T11:11:16.549Z,16.86
2022-10-05T11:12:16.918Z,17.08
2022-10-05T11:13:16.387Z,17.28
2022-10-05T11:14:16.902Z,17.31
2022-10-05T11:15:16.410Z,17.25
2022-10-05T11:16:18.677Z,17.22
2022-10-05T11:17:16.376Z,17.17
2022-10-05T11:18:16.824Z,17.13
2022-10-05T11:19:17.273Z,17.13
2022-10-05T11:20:16.714Z,17.15
2022-10-05T11:21:17.160Z,17.14
2022-10-05T11:22:16.731Z,17.17
2022-10-05T11:23:17.194Z,17.32
2022-10-05T11:24:16.669Z,17.41
2022-10-05T11:25:17.162Z,17.46
2022-10-05T11:26:16.630Z,17.48
2022-10-05T11:27:17.116Z,17.50
2022-10-05T11:28:16.730Z,17.43
2022-10-05T11:29:16.326Z,17.39
2022-10-05T11:30:16.769Z,17.42
2022-10-05T11:31:17.260Z,17.33
2022-10-05T11:32:16.802Z,17.25
2022-10-05T11:33:17.231Z,17.45
2022-10-05T11:34:16.655Z,17.49
2022-10-05T11:35:17.092Z,17.42
2022-10-05T11:36:16.574Z,17.43
2022-10-05T11:37:17.007Z,17.54
2022-10-05T11:38:16.468Z,17.77
2022-10-05T11:39:16.914Z,17.70
2022-10-05T11:40:16.396Z,17.53
2022-10-05T11:41:16.875Z,17.56
2022-10-05T11:42:17.247Z,17.73
2022-10-05T11:43:16.769Z,17.72
2022-10-05T11:44:17.233Z,17.63
2022-10-05T11:45:16.704Z,17.79
2022-10-05T11:46:17.169Z,17.89
2022-10-05T11:47:16.669Z,17.84
2022-10-05T11:48:17.145Z,17.87
2022-10-05T11:49:16.601Z,17.81
2022-10-05T11:50:17.032Z,17.81
2022-10-05T11:51:16.484Z,17.83
2022-10-05T11:52:16.307Z,17.76
2022-10-05T11:53:16.784Z,17.72
2022-10-05T11:54:17.240Z,17.76
2022-10-05T11:55:16.732Z,17.63
2022-10-05T11:56:17.296Z,17.62
2022-10-05T11:57:16.846Z,17.72
2022-10-05T11:58:16.303Z,17.90
2022-10-05T11:59:16.754Z,18.07
2022-10-05T12:00:17.178Z,17.87
2022-10-05T12:01:16.629Z,17.81
2022-10-05T12:02:16.936Z,17.84
2022-10-05T12:03:16.455Z,17.69
2022-10-05T12:04:17.123Z,17.72
2022-10-05T12:05:16.669Z,17.73
2022-10-05T12:06:17.110Z,17.72
2022-10-05T12:07:16.588Z,17.79
2022-10-05T12:08:17.087Z,18.00
2022-10-05T12:09:16.560Z,17.89
2022-10-05T12:10:17.026Z,17.83
2022-10-05T12:11:16.503Z,17.77
2022-10-05T12:12:17.223Z,17.86
2022-10-05T12:13:16.725Z,17.96
2022-10-05T12:14:17.183Z,17.91
2022-10-05T12:15:16.632Z,17.90
2022-10-05T12:16:17.141Z,17.86
2022-10-05T12:17:16.653Z,17.93
2022-10-05T12:18:17.079Z,17.96
2022-10-05T12:19:16.507Z,17.91
2022-10-05T12:20:16.959Z,17.83
2022-10-05T12:21:16.380Z,17.80
2022-10-05T12:22:17.235Z,17.76
2022-10-05T12:23:16.711Z,17.87
2022-10-05T12:24:17.176Z,17.83
2022-10-05T12:25:16.649Z,17.97
2022-10-05T12:26:17.115Z,17.98
2022-10-05T12:27:16.575Z,17.89
2022-10-05T12:28:17.125Z,18.10
2022-10-05T12:29:16.649Z,18.10
2022-10-05T12:30:17.124Z,18.07
2022-10-05T12:31:16.591Z,18.10
2022-10-05T12:32:16.992Z,18.08
2022-10-05T12:33:16.455Z,18.07
2022-10-05T12:34:16.913Z,18.10
2022-10-05T12:35:29.901Z,18.12
2022-10-05T12:36:16.832Z,18.14
2022-10-05T12:37:17.392Z,18.10
2022-10-05T12:38:16.837Z,18.00
2022-10-05T12:39:16.307Z,18.01
2022-10-05T12:40:16.797Z,18.04
2022-10-05T12:41:17.246Z,18.03
2022-10-05T12:42:16.649Z,18.07
2022-10-05T12:43:17.139Z,18.11
2022-10-05T12:44:16.645Z,18.12
2022-10-05T12:45:17.128Z,18.18
2022-10-05T12:46:16.592Z,18.12
2022-10-05T12:47:17.030Z,18.14
2022-10-05T12:48:16.468Z,18.15
2022-10-05T12:49:16.918Z,18.24
2022-10-05T12:50:16.392Z,18.28
2022-10-05T12:51:16.827Z,18.29
2022-10-05T12:52:17.199Z,18.35
2022-10-05T12:53:16.654Z,18.21
2022-10-05T12:54:17.116Z,18.22
2022-10-05T12:55:16.589Z,18.28
2022-10-05T12:56:17.046Z,18.24
2022-10-05T12:57:16.570Z,18.32
2022-10-05T12:58:17.059Z,18.28
2022-10-05T12:59:16.529Z,18.25
2022-10-05T13:00:21.865Z,18.27
2022-10-05T13:01:16.858Z,18.32
2022-10-05T13:02:16.411Z,18.38
2022-10-05T13:03:16.921Z,18.33
2022-10-05T13:04:16.376Z,18.58
2022-10-05T13:05:16.800Z,18.66
2022-10-05T13:06:17.253Z,18.86
2022-10-05T13:07:16.723Z,18.94
2022-10-05T13:08:17.196Z,19.00